GMTN 
Saniat Rmel Airport
Morocco 
ICAOIATAStatus
GMTNTTUOperational
LatitudeLongitude
35° 35' 39" N5° 19' 12" W
35.594299-5.320020
Local Time (DST+1)UTC (GMT0)
04-23-2014 05:55 pm04-23-2014 16:55
Sunrise-SunsetLocalUTC
Begin Civil Twilight06:09 am05:09
Sunrise06:36 am05:36
Sunset08:02 pm19:02
End Civil Twilight08:29 pm19:29

Current Weather

METARObservedFlight Conditions

GMTN 231600Z VRB04KT 9999 FEW026 22/13 Q1020

Wed, Apr 23, 2014 @ 16:00 UTC(Z)

(55 Minutes ago)

VFR

(Visual Flight Rules)

WindVisibilityCloudsConditions
Varies at 4 knots (7 kph)
10 km or more
  • Few at 2,600' AGL
  • No significant weather
TemperaturesReadingsPrecipitation
Current Temp22°C (72°F)
Dewpoint13°C (55°F)
Humidity57%
Altimeter30.12"Hg
Sea Level Pressure1020mb
Field Elevation32.81'
None Recorded

Additional weather within a 92.6km radius of GMTN

Location METAR
GMTT

55.9km W (285°)

25 minutes ago
LXGB

61.9km N (360°)

1 hour, 5 minutes ago
VFR VFR    MVFR MVFR    IFR IFR    LIFR LIFR    Unknown Unknown

Previous 24 hour Weather Graphs

  Loading...

CheckWX.com is intended as a tool to help pilots better visualize weather data.   It is not intended as a substitute for an official weather briefing obtained from a Flight Service Station.
CheckWX.com does not meet the FAA requirements for an official pre-flight weather briefing.   Therefore, it's important that pilots still call and obtain an official FSS pre-flight weather briefing.